Time;durP1;ratioP1;P1;durP2;ratioP2;P2;SDS_P1;SDS_P2;PMS_P1;PMS_P2;Temp;Humidity;BMP_temperature;BMP_pressure;BME280_temperature;BME280_humidity;BME280_pressure;Samples;Min_cycle;Max_cycle;Signal;HPM_P1;HPM_P2
2022/12/31 00:01:04;;;;;;;1.53;1.43;;;8.40;74.60;;;;;;5027992;28;20560;-56
2022/12/31 00:03:31;;;;;;;1.70;1.60;;;8.50;20.20;;;;;;5029663;28;20550;-55
2022/12/31 00:05:58;;;;;;;1.37;1.27;;;8.50;21.40;;;;;;5025222;28;20546;-55
2022/12/31 00:08:24;;;;;;;1.10;1.10;;;8.50;21.70;;;;;;5030710;28;20992;-54
2022/12/31 00:10:52;;;;;;;1.60;1.50;;;8.60;20.30;;;;;;5030371;28;20550;-55
2022/12/31 00:13:19;;;;;;;1.30;1.20;;;8.70;21.10;;;;;;5029926;28;20525;-55
2022/12/31 00:15:45;;;;;;;2.07;1.27;;;8.70;25.40;;;;;;5027919;28;20558;-56
2022/12/31 00:18:12;;;;;;;1.23;1.13;;;8.70;26.50;;;;;;5030815;28;20566;-55
2022/12/31 00:20:40;;;;;;;1.50;1.20;;;8.80;27.50;;;;;;5021944;28;20547;-54
2022/12/31 00:23:07;;;;;;;1.17;1.10;;;8.90;29.80;;;;;;5030264;28;20460;-54
2022/12/31 00:25:35;;;;;;;0.97;0.97;;;8.80;30.30;;;;;;5027283;28;20547;-54
2022/12/31 00:28:03;;;;;;;1.37;1.27;;;8.90;29.50;;;;;;5027158;28;20632;-54
2022/12/31 00:30:29;;;;;;;0.90;0.90;;;9.00;32.50;;;;;;5022427;28;21020;-53
2022/12/31 00:32:56;;;;;;;1.20;1.03;;;9.00;34.30;;;;;;5028968;28;20487;-54
2022/12/31 00:35:22;;;;;;;1.17;1.07;;;9.00;36.90;;;;;;5026318;28;20578;-54
2022/12/31 00:37:51;;;;;;;1.27;1.17;;;9.10;38.20;;;;;;5030609;28;20515;-55
2022/12/31 00:40:18;;;;;;;1.33;1.33;;;9.10;41.00;;;;;;5025099;28;20544;-55
2022/12/31 00:42:44;;;;;;;1.10;1.10;;;9.10;41.90;;;;;;5030842;28;20547;-56
2022/12/31 00:45:12;;;;;;;2.20;1.10;;;9.10;41.90;;;;;;5027282;28;20554;-54
2022/12/31 00:47:39;;;;;;;0.90;0.90;;;9.10;41.90;;;;;;5024847;28;20519;-57
2022/12/31 00:50:06;;;;;;;1.20;1.00;;;9.10;42.30;;;;;;5027719;28;20551;-54
2022/12/31 00:52:33;;;;;;;0.90;0.90;;;9.10;43.10;;;;;;5028905;28;20526;-54
2022/12/31 00:54:59;;;;;;;3.60;1.50;;;9.10;43.60;;;;;;5028369;28;20484;-54
2022/12/31 00:57:26;;;;;;;8.43;1.13;;;9.20;43.10;;;;;;5028774;28;20519;-54
2022/12/31 00:59:52;;;;;;;1.00;1.00;;;9.10;44.20;;;;;;5025529;28;20547;-54
2022/12/31 01:02:20;;;;;;;1.10;1.10;;;9.10;43.20;;;;;;5024645;28;20552;-54
2022/12/31 01:04:47;;;;;;;1.00;1.00;;;9.10;43.90;;;;;;5023933;28;21060;-55
2022/12/31 01:07:13;;;;;;;1.03;1.03;;;9.20;45.30;;;;;;5028678;28;20582;-56
2022/12/31 01:09:40;;;;;;;0.80;0.80;;;9.20;44.80;;;;;;5026690;28;20563;-55
2022/12/31 01:12:07;;;;;;;1.20;1.00;;;9.20;47.20;;;;;;5028914;28;20558;-54
2022/12/31 01:14:33;;;;;;;1.13;1.13;;;9.20;46.60;;;;;;5030367;28;20566;-55
2022/12/31 01:17:00;;;;;;;1.17;0.80;;;9.20;48.70;;;;;;5030719;28;20925;-53
2022/12/31 01:19:29;;;;;;;0.87;0.87;;;9.20;49.90;;;;;;5030436;28;20547;-55
2022/12/31 01:21:56;;;;;;;1.03;0.90;;;9.20;48.90;;;;;;5031360;28;20468;-54
2022/12/31 01:24:23;;;;;;;1.43;1.07;;;9.20;48.20;;;;;;5029038;28;20537;-55
2022/12/31 01:26:50;;;;;;;1.93;1.10;;;9.30;48.50;;;;;;5029930;28;20510;-54
2022/12/31 01:29:17;;;;;;;1.00;1.00;;;9.30;48.30;;;;;;5030743;28;20462;-55
2022/12/31 01:31:43;;;;;;;1.10;1.00;;;9.30;50.90;;;;;;5023634;28;20488;-54
2022/12/31 01:34:10;;;;;;;0.80;0.80;;;9.30;51.80;;;;;;5027183;28;20546;-54
2022/12/31 01:36:38;;;;;;;1.00;1.00;;;9.30;50.10;;;;;;5030820;28;20562;-54
2022/12/31 01:39:07;;;;;;;1.43;0.73;;;9.30;50.30;;;;;;5032426;28;20546;-55
2022/12/31 01:41:35;;;;;;;0.90;0.80;;;9.30;50.90;;;;;;5029012;28;20546;-54
2022/12/31 01:44:23;;;;;;;1.80;0.70;;;9.30;50.60;;;;;;5029455;28;20479;-54
2022/12/31 01:46:54;;;;;;;1.30;0.80;;;9.40;50.60;;;;;;5024914;28;20982;-55
2022/12/31 01:49:25;;;;;;;0.93;0.93;;;9.40;49.10;;;;;;5027687;28;20557;-55
2022/12/31 01:51:57;;;;;;;0.90;0.77;;;9.40;48.20;;;;;;5027885;28;20546;-54
2022/12/31 01:54:27;;;;;;;0.97;0.97;;;9.40;49.40;;;;;;5028526;28;20591;-54
2022/12/31 01:56:55;;;;;;;0.80;0.80;;;9.40;49.00;;;;;;5030017;28;20566;-56
2022/12/31 01:59:24;;;;;;;0.70;0.70;;;9.40;46.10;;;;;;5030327;28;20512;-54
2022/12/31 02:01:52;;;;;;;0.60;0.60;;;9.40;50.00;;;;;;5028732;28;20542;-55
2022/12/31 02:04:22;;;;;;;1.00;0.90;;;9.50;48.00;;;;;;5028160;28;20556;-56
2022/12/31 02:06:53;;;;;;;1.00;0.83;;;9.50;48.10;;;;;;5031435;28;20586;-55
2022/12/31 02:09:19;;;;;;;0.80;0.80;;;9.60;50.30;;;;;;5029273;28;20550;-56
2022/12/31 02:11:46;;;;;;;2.60;0.80;;;9.60;49.40;;;;;;5029255;28;20558;-55
2022/12/31 02:14:18;;;;;;;0.80;0.73;;;9.60;49.10;;;;;;5027657;28;20545;-54
2022/12/31 02:16:52;;;;;;;0.70;0.70;;;9.60;46.30;;;;;;5028224;28;20566;-55
2022/12/31 02:19:46;;;;;;;1.00;0.90;;;9.60;46.30;;;;;;5024349;28;20561;-55
2022/12/31 02:22:25;;;;;;;0.70;0.50;;;9.70;46.90;;;;;;5026661;28;20543;-55
2022/12/31 02:25:05;;;;;;;5.70;0.80;;;9.70;46.10;;;;;;5026843;28;20910;-54
2022/12/31 02:27:51;;;;;;;1.03;0.63;;;9.70;46.40;;;;;;5032492;28;20597;-57
2022/12/31 02:30:20;;;;;;;0.80;0.63;;;9.70;46.70;;;;;;5028075;28;20550;-55
2022/12/31 02:33:03;;;;;;;0.80;0.80;;;9.80;43.60;;;;;;5029120;28;20537;-55
2022/12/31 02:35:32;;;;;;;0.70;0.70;;;9.90;41.80;;;;;;5026777;28;20486;-55
2022/12/31 02:38:04;;;;;;;0.63;0.63;;;9.90;44.40;;;;;;5025643;28;20587;-55
2022/12/31 02:40:34;;;;;;;1.00;0.90;;;9.90;43.00;;;;;;5029834;28;20519;-54
2022/12/31 02:43:01;;;;;;;0.60;0.60;;;10.00;40.70;;;;;;5026969;28;20548;-54
2022/12/31 02:45:33;;;;;;;0.90;0.90;;;10.00;38.60;;;;;;5025153;28;20549;-56
2022/12/31 02:48:28;;;;;;;0.50;0.50;;;10.00;38.30;;;;;;5026220;28;20572;-54
2022/12/31 02:51:01;;;;;;;0.83;0.83;;;10.10;39.80;;;;;;5026490;28;20551;-55
2022/12/31 02:53:47;;;;;;;0.80;0.80;;;10.10;39.50;;;;;;5027649;28;20570;-54
2022/12/31 02:56:18;;;;;;;0.60;0.60;;;10.20;38.60;;;;;;5025640;28;20575;-54
2022/12/31 03:04:43;;;;;;;1.90;0.80;;;10.30;39.80;;;;;;4987214;28;20469;-55
2022/12/31 03:07:12;;;;;;;0.63;0.63;;;10.30;40.30;;;;;;5019375;28;20994;-55
2022/12/31 03:09:38;;;;;;;0.80;0.80;;;10.30;38.30;;;;;;5028458;28;21001;-55
2022/12/31 03:14:52;;;;;;;0.60;0.60;;;10.40;37.50;;;;;;5024698;28;20454;-55
2022/12/31 03:17:20;;;;;;;0.57;0.57;;;10.40;40.10;;;;;;5031054;28;20511;-55
2022/12/31 03:22:31;;;;;;;1.47;0.50;;;10.40;39.40;;;;;;5027788;28;20895;-54
2022/12/31 03:27:46;;;;;;;0.77;0.77;;;10.50;40.10;;;;;;5025184;28;20847;-54
2022/12/31 03:30:15;;;;;;;0.60;0.60;;;10.50;40.70;;;;;;5029226;28;20546;-54
2022/12/31 03:32:44;;;;;;;0.80;0.67;;;10.60;41.60;;;;;;5027896;28;20547;-54
2022/12/31 03:35:12;;;;;;;2.87;0.80;;;10.60;42.80;;;;;;5030934;28;20566;-56
2022/12/31 03:37:39;;;;;;;0.70;0.70;;;10.60;43.80;;;;;;5030684;28;20554;-56
2022/12/31 03:40:07;;;;;;;1.33;0.70;;;10.60;44.20;;;;;;5030199;28;20467;-56
2022/12/31 03:42:34;;;;;;;2.10;0.80;;;10.60;43.70;;;;;;5028937;28;20502;-55
2022/12/31 03:45:01;;;;;;;0.57;0.57;;;10.70;44.80;;;;;;5024769;28;20551;-55
2022/12/31 03:47:28;;;;;;;0.80;0.80;;;10.70;44.70;;;;;;5027795;28;20579;-55
2022/12/31 03:49:56;;;;;;;2.87;0.90;;;10.80;46.40;;;;;;5024047;28;20559;-57
2022/12/31 03:52:22;;;;;;;0.93;0.93;;;10.80;47.90;;;;;;5030548;28;20549;-55
2022/12/31 03:54:49;;;;;;;0.60;0.60;;;10.80;45.40;;;;;;5028725;28;20919;-55
2022/12/31 03:57:15;;;;;;;0.73;0.73;;;10.80;40.20;;;;;;5029966;28;21031;-55
2022/12/31 03:59:42;;;;;;;0.83;0.83;;;10.60;28.40;;;;;;5024531;28;20554;-53
2022/12/31 04:02:08;;;;;;;0.50;0.50;;;10.60;75.80;;;;;;5029318;28;20500;-54
2022/12/31 04:04:35;;;;;;;0.50;0.50;;;10.50;99.90;;;;;;5025378;28;20555;-53
2022/12/31 04:07:03;;;;;;;0.60;0.60;;;10.50;99.90;;;;;;5028583;28;20584;-54
2022/12/31 04:09:29;;;;;;;1.20;0.80;;;10.40;99.90;;;;;;5023039;28;20559;-55
2022/12/31 04:11:56;;;;;;;0.70;0.67;;;10.30;99.90;;;;;;5027383;28;21036;-54
2022/12/31 04:14:22;;;;;;;0.60;0.60;;;10.30;99.90;;;;;;5027585;28;20550;-55
2022/12/31 04:16:49;;;;;;;0.80;0.80;;;10.30;99.90;;;;;;5023216;28;20574;-55
2022/12/31 04:19:16;;;;;;;0.80;0.67;;;10.30;99.90;;;;;;5025273;28;20562;-54
2022/12/31 04:21:42;;;;;;;0.90;0.73;;;10.30;99.90;;;;;;5027923;28;20551;-53
2022/12/31 04:24:10;;;;;;;0.60;0.57;;;10.30;99.90;;;;;;5029284;28;20547;-55
2022/12/31 04:26:37;;;;;;;0.60;0.60;;;10.20;99.90;;;;;;5027474;28;21109;-54
2022/12/31 04:29:04;;;;;;;0.83;0.83;;;10.30;99.90;;;;;;5026919;28;20525;-54
2022/12/31 04:31:31;;;;;;;1.10;0.60;;;10.20;99.90;;;;;;5025456;28;20487;-55
2022/12/31 04:33:57;;;;;;;0.63;0.63;;;10.30;99.90;;;;;;5026341;28;20538;-56
2022/12/31 04:36:24;;;;;;;0.60;0.60;;;10.30;99.90;;;;;;5023052;28;20578;-55
2022/12/31 04:38:50;;;;;;;0.70;0.63;;;10.30;99.90;;;;;;5026281;28;20460;-54
2022/12/31 04:41:19;;;;;;;0.50;0.50;;;10.30;99.90;;;;;;5025978;28;20543;-56
2022/12/31 04:43:48;;;;;;;1.07;0.60;;;10.40;99.90;;;;;;5030996;28;20513;-54
2022/12/31 04:46:16;;;;;;;0.70;0.70;;;10.40;99.90;;;;;;5026604;28;20509;-55
2022/12/31 04:48:43;;;;;;;0.50;0.50;;;10.40;99.90;;;;;;5028242;28;20550;-56
2022/12/31 04:51:10;;;;;;;0.60;0.60;;;10.40;99.90;;;;;;5028353;28;20573;-55
2022/12/31 04:53:36;;;;;;;0.60;0.60;;;10.40;99.90;;;;;;5033332;28;20546;-53
2022/12/31 04:56:04;;;;;;;0.60;0.60;;;10.50;99.90;;;;;;5027230;28;20611;-55
2022/12/31 04:58:32;;;;;;;0.60;0.60;;;10.50;99.90;;;;;;5032740;28;21076;-56
2022/12/31 05:00:59;;;;;;;2.10;0.60;;;10.50;99.90;;;;;;5024667;28;20566;-55
2022/12/31 05:03:27;;;;;;;0.73;0.73;;;10.50;99.90;;;;;;5033177;28;20546;-55
2022/12/31 05:05:54;;;;;;;0.60;0.60;;;10.50;99.90;;;;;;5023390;28;20560;-56
2022/12/31 05:08:21;;;;;;;0.60;0.60;;;10.50;99.90;;;;;;5031044;28;20545;-55
2022/12/31 05:10:49;;;;;;;0.60;0.60;;;10.60;99.90;;;;;;5027240;28;21045;-54
2022/12/31 05:13:16;;;;;;;1.67;0.80;;;10.60;99.90;;;;;;5030156;28;20870;-55
2022/12/31 05:15:46;;;;;;;0.73;0.60;;;10.60;99.90;;;;;;5032261;28;20632;-55
2022/12/31 05:18:13;;;;;;;0.93;0.70;;;10.70;99.90;;;;;;5033614;28;20486;-54
2022/12/31 05:20:40;;;;;;;0.90;0.90;;;10.70;99.90;;;;;;5030848;28;20555;-54
2022/12/31 05:23:06;;;;;;;0.70;0.57;;;10.70;99.90;;;;;;5034117;28;20488;-56
2022/12/31 05:25:33;;;;;;;0.57;0.57;;;10.70;99.90;;;;;;5026790;28;21336;-56
2022/12/31 05:27:59;;;;;;;1.53;0.70;;;10.70;99.90;;;;;;5025813;28;20896;-57
2022/12/31 05:30:26;;;;;;;0.60;0.50;;;10.70;99.90;;;;;;5031525;28;20506;-52
2022/12/31 05:32:54;;;;;;;0.70;0.70;;;10.70;99.90;;;;;;5033405;28;20554;-52
2022/12/31 05:35:20;;;;;;;2.10;0.70;;;10.60;99.90;;;;;;5032163;28;20516;-52
2022/12/31 05:37:47;;;;;;;0.80;0.80;;;10.60;99.90;;;;;;5033242;28;20514;-52
2022/12/31 05:40:13;;;;;;;1.83;0.87;;;10.60;99.90;;;;;;5032415;28;20493;-52
2022/12/31 05:42:40;;;;;;;0.60;0.53;;;10.60;99.90;;;;;;5028353;28;20990;-52
2022/12/31 05:45:08;;;;;;;1.17;0.97;;;10.60;99.90;;;;;;5031526;28;20475;-52
2022/12/31 05:47:34;;;;;;;1.20;0.73;;;10.60;99.90;;;;;;5031787;28;20512;-51
2022/12/31 05:50:02;;;;;;;0.70;0.70;;;10.70;99.90;;;;;;5033447;28;20953;-52
2022/12/31 05:52:29;;;;;;;3.90;0.70;;;10.60;99.90;;;;;;5030308;28;20570;-51
2022/12/31 05:54:56;;;;;;;0.80;0.80;;;10.70;99.90;;;;;;5032730;28;20994;-51
2022/12/31 05:57:22;;;;;;;0.90;0.90;;;10.60;99.90;;;;;;5031251;28;20577;-51
2022/12/31 05:59:49;;;;;;;0.60;0.60;;;10.60;99.90;;;;;;5031773;28;20547;-52
2022/12/31 06:02:15;;;;;;;1.20;0.90;;;10.60;99.90;;;;;;5029361;28;20464;-52
2022/12/31 06:04:42;;;;;;;0.80;0.80;;;10.60;99.90;;;;;;5026290;28;20518;-52
2022/12/31 06:07:10;;;;;;;0.83;0.83;;;10.60;99.90;;;;;;5027483;28;20578;-52
2022/12/31 06:09:36;;;;;;;1.00;0.90;;;10.60;99.90;;;;;;5030967;28;20489;-51
2022/12/31 06:12:03;;;;;;;1.00;1.00;;;10.60;99.90;;;;;;5033518;28;20536;-52
2022/12/31 06:14:29;;;;;;;1.40;1.00;;;10.60;99.90;;;;;;5028498;28;20509;-50
2022/12/31 06:16:56;;;;;;;1.90;0.93;;;10.60;99.90;;;;;;5022585;28;20602;-53
2022/12/31 06:19:23;;;;;;;1.17;0.50;;;10.60;99.90;;;;;;5027235;28;20559;-51
2022/12/31 06:21:49;;;;;;;2.87;0.70;;;10.50;99.90;;;;;;5030127;28;20518;-52
2022/12/31 06:24:17;;;;;;;0.60;0.60;;;10.50;99.90;;;;;;5030237;28;20559;-51
2022/12/31 06:26:44;;;;;;;0.77;0.67;;;10.50;99.90;;;;;;5028047;28;20567;-51
2022/12/31 06:29:10;;;;;;;0.77;0.60;;;10.50;95.20;;;;;;5029972;28;20575;-51
2022/12/31 06:31:37;;;;;;;1.20;1.10;;;10.50;98.00;;;;;;5031165;28;20546;-51
2022/12/31 06:34:04;;;;;;;1.17;1.00;;;10.50;92.10;;;;;;5030592;28;20550;-52
2022/12/31 06:36:30;;;;;;;2.70;0.80;;;10.40;91.70;;;;;;5028954;28;20575;-53
2022/12/31 06:38:57;;;;;;;0.90;0.90;;;10.50;23.10;;;;;;5029085;28;20551;-51
2022/12/31 06:41:25;;;;;;;1.63;0.70;;;10.60;24.10;;;;;;5022850;28;20575;-51
2022/12/31 06:43:51;;;;;;;0.60;0.60;;;10.60;24.30;;;;;;5031693;28;20497;-51
2022/12/31 06:46:18;;;;;;;0.70;0.70;;;10.60;23.60;;;;;;5030842;28;20459;-50
2022/12/31 06:48:45;;;;;;;0.67;0.67;;;10.60;23.10;;;;;;5031770;28;20495;-51
2022/12/31 06:51:13;;;;;;;0.97;0.97;;;10.50;24.10;;;;;;5026262;28;20460;-52
2022/12/31 06:53:40;;;;;;;1.00;1.00;;;10.60;25.40;;;;;;5028625;28;20899;-51
2022/12/31 06:56:08;;;;;;;0.60;0.60;;;10.60;22.90;;;;;;5026518;28;20590;-51
2022/12/31 06:58:37;;;;;;;1.57;0.93;;;10.60;25.70;;;;;;5031113;28;20555;-51
2022/12/31 07:01:19;;;;;;;0.83;0.83;;;10.70;28.60;;;;;;5026442;28;20538;-51
2022/12/31 07:03:58;;;;;;;0.60;0.50;;;10.80;29.60;;;;;;5026150;28;20503;-51
2022/12/31 07:06:30;;;;;;;0.73;0.63;;;10.80;30.20;;;;;;5027324;28;21032;-51
2022/12/31 07:09:06;;;;;;;0.60;0.60;;;10.90;32.40;;;;;;5027909;28;20502;-51
2022/12/31 07:11:42;;;;;;;0.77;0.77;;;11.00;30.80;;;;;;5031039;28;20579;-51
2022/12/31 07:14:22;;;;;;;0.70;0.70;;;11.00;29.50;;;;;;5030254;28;20826;-51
2022/12/31 07:17:00;;;;;;;1.10;0.73;;;11.00;26.00;;;;;;5027119;28;20578;-52
2022/12/31 07:19:39;;;;;;;2.50;0.70;;;11.10;24.90;;;;;;5030201;28;20554;-51
2022/12/31 07:22:11;;;;;;;0.70;0.70;;;11.10;24.10;;;;;;5028132;28;20505;-51
2022/12/31 07:24:38;;;;;;;1.13;0.80;;;11.20;21.50;;;;;;5021192;28;20503;-51
2022/12/31 07:27:16;;;;;;;1.10;1.10;;;11.30;72.00;;;;;;5030463;28;20941;-51
2022/12/31 07:29:58;;;;;;;1.47;1.37;;;11.30;85.90;;;;;;5022306;28;21004;-51
2022/12/31 07:32:40;;;;;;;1.30;1.20;;;11.30;99.90;;;;;;5028213;28;20935;-52
2022/12/31 07:35:16;;;;;;;1.03;1.03;;;11.40;99.90;;;;;;5030180;28;20562;-52
2022/12/31 07:37:51;;;;;;;2.63;0.93;;;11.50;99.90;;;;;;5024478;28;20563;-51
2022/12/31 07:40:25;;;;;;;1.17;1.03;;;11.50;99.90;;;;;;5016936;28;20567;-51
2022/12/31 07:43:03;;;;;;;1.83;1.17;;;11.70;99.90;;;;;;5016042;28;21373;-51
2022/12/31 07:45:38;;;;;;;1.33;1.23;;;11.80;99.90;;;;;;5019658;28;20889;-50
2022/12/31 07:48:14;;;;;;;1.33;1.23;;;11.80;99.90;;;;;;5030610;28;20474;-51
2022/12/31 07:50:41;;;;;;;2.60;0.93;;;11.80;99.90;;;;;;5022256;28;20911;-51
2022/12/31 07:53:09;;;;;;;0.83;0.83;;;11.80;99.90;;;;;;5017925;28;20546;-51
2022/12/31 07:55:35;;;;;;;0.60;0.50;;;11.90;99.90;;;;;;5019807;28;21218;-51
2022/12/31 07:58:13;;;;;;;0.70;0.70;;;12.00;99.90;;;;;;5015456;28;22601;-52
2022/12/31 08:00:41;;;;;;;0.60;0.60;;;12.00;99.90;;;;;;5012993;28;20558;-51
2022/12/31 08:03:22;;;;;;;1.20;1.20;;;12.00;99.90;;;;;;5014301;28;21234;-50
2022/12/31 08:06:00;;;;;;;0.60;0.60;;;12.10;99.90;;;;;;5014208;28;20554;-52
2022/12/31 08:08:36;;;;;;;1.10;0.90;;;12.10;99.90;;;;;;5013685;28;20579;-51
2022/12/31 08:11:14;;;;;;;1.10;1.00;;;12.20;99.90;;;;;;5018819;28;20558;-51
2022/12/31 08:13:42;;;;;;;0.73;0.73;;;12.20;99.90;;;;;;5014995;28;21164;-51
2022/12/31 08:16:12;;;;;;;0.60;0.50;;;12.30;99.90;;;;;;5017787;28;20495;-52
2022/12/31 08:18:39;;;;;;;1.57;0.80;;;12.30;99.90;;;;;;5021000;28;20502;-51
2022/12/31 08:21:17;;;;;;;0.90;0.60;;;12.30;99.90;;;;;;5019922;28;21032;-51
2022/12/31 08:23:53;;;;;;;0.70;0.60;;;12.30;99.90;;;;;;5015142;28;20538;-51
2022/12/31 08:26:29;;;;;;;1.33;0.70;;;12.40;99.90;;;;;;5021946;28;20562;-51
2022/12/31 08:29:05;;;;;;;0.80;0.80;;;12.50;99.90;;;;;;5022023;28;20546;-51
2022/12/31 08:31:41;;;;;;;1.50;1.07;;;12.50;99.90;;;;;;5017990;28;20487;-51
2022/12/31 08:34:16;;;;;;;1.30;1.20;;;12.60;99.90;;;;;;5017454;28;21038;-50
2022/12/31 08:36:52;;;;;;;3.13;1.10;;;12.60;99.90;;;;;;5021236;28;20497;-50
2022/12/31 08:39:29;;;;;;;0.93;0.93;;;12.60;99.90;;;;;;5017036;28;20550;-51
2022/12/31 08:41:58;;;;;;;0.97;0.87;;;12.80;99.90;;;;;;5021375;28;20606;-51
2022/12/31 08:44:32;;;;;;;0.70;0.70;;;12.70;99.90;;;;;;5020766;28;20464;-51
2022/12/31 08:47:08;;;;;;;1.07;0.97;;;12.80;99.90;;;;;;5019262;28;20549;-50
2022/12/31 08:49:36;;;;;;;1.83;0.73;;;12.80;99.90;;;;;;5027221;28;20536;-51
2022/12/31 08:52:03;;;;;;;0.83;0.83;;;12.80;99.90;;;;;;5029858;28;21056;-51
2022/12/31 08:54:30;;;;;;;1.73;0.80;;;12.80;99.90;;;;;;5032352;28;20456;-51
2022/12/31 08:57:04;;;;;;;1.27;0.90;;;12.90;99.90;;;;;;5030084;28;20574;-51
2022/12/31 08:59:44;;;;;;;1.00;0.90;;;13.00;99.90;;;;;;5029833;28;20505;-50
2022/12/31 09:02:41;;;;;;;0.70;0.70;;;12.90;99.90;;;;;;5029292;28;20460;-51
2022/12/31 09:05:17;;;;;;;1.10;0.77;;;13.10;99.90;;;;;;5023224;28;20550;-51
2022/12/31 09:07:57;;;;;;;0.77;0.77;;;13.00;99.90;;;;;;5032598;28;20557;-51
2022/12/31 09:10:29;;;;;;;0.97;0.97;;;13.10;99.90;;;;;;5022727;28;20455;-50
2022/12/31 09:13:02;;;;;;;3.57;0.80;;;13.10;99.90;;;;;;5024936;28;21044;-51
2022/12/31 09:15:36;;;;;;;0.80;0.80;;;13.10;99.90;;;;;;5029990;28;20500;-50
2022/12/31 09:18:04;;;;;;;2.80;1.20;;;13.20;99.90;;;;;;5032952;28;20491;-51
2022/12/31 09:20:34;;;;;;;0.87;0.83;;;13.10;99.90;;;;;;5036128;28;20543;-51
2022/12/31 09:23:02;;;;;;;0.80;0.80;;;13.20;99.90;;;;;;5033015;28;20988;-51
2022/12/31 09:25:29;;;;;;;1.10;1.00;;;13.20;99.90;;;;;;5030336;28;20551;-52
2022/12/31 09:28:07;;;;;;;1.20;1.10;;;13.20;99.90;;;;;;5035185;28;20522;-50
2022/12/31 09:30:41;;;;;;;1.00;0.97;;;13.10;99.90;;;;;;5026183;28;20462;-50
2022/12/31 09:33:16;;;;;;;0.93;0.93;;;13.10;99.90;;;;;;5029469;28;20546;-52
2022/12/31 09:35:50;;;;;;;0.90;0.90;;;13.10;99.90;;;;;;5024002;28;20557;-51
2022/12/31 09:38:19;;;;;;;2.20;1.20;;;13.00;99.90;;;;;;5033045;28;20487;-51
2022/12/31 09:41:14;;;;;;;9.87;8.50;;;13.00;99.90;;;;;;5025857;28;20562;-51
2022/12/31 09:44:17;;;;;;;10.63;9.30;;;12.90;99.90;;;;;;5031573;28;20488;-52
2022/12/31 09:47:12;;;;;;;22.70;17.63;;;12.90;99.90;;;;;;5026703;28;20864;-51
2022/12/31 09:50:16;;;;;;;4.53;4.07;;;12.90;99.90;;;;;;5029005;28;20542;-51
2022/12/31 09:53:01;;;;;;;1.33;1.23;;;12.80;99.90;;;;;;5018106;28;22499;-50
2022/12/31 09:55:35;;;;;;;2.53;1.90;;;12.80;99.90;;;;;;5022856;28;20543;-50
2022/12/31 09:58:12;;;;;;;1.37;1.27;;;12.80;99.90;;;;;;5025190;28;20607;-51
2022/12/31 10:00:43;;;;;;;1.13;1.03;;;12.80;99.90;;;;;;5024282;28;20899;-50
2022/12/31 10:03:28;;;;;;;1.57;1.47;;;12.80;99.90;;;;;;5030801;28;20552;-51
2022/12/31 10:06:16;;;;;;;1.43;1.33;;;12.80;99.90;;;;;;5023803;28;20543;-50
2022/12/31 10:09:05;;;;;;;3.53;3.33;;;12.80;99.90;;;;;;5032469;28;20487;-51
2022/12/31 10:11:46;;;;;;;1.33;1.23;;;12.80;99.90;;;;;;5028151;28;20494;-53
2022/12/31 10:14:25;;;;;;;1.50;1.40;;;12.70;99.90;;;;;;5024743;28;20550;-51
2022/12/31 10:17:06;;;;;;;1.50;1.43;;;12.80;99.90;;;;;;5031518;28;20507;-52
2022/12/31 10:20:05;;;;;;;2.27;2.07;;;12.70;99.90;;;;;;5018081;28;20893;-52
2022/12/31 10:23:07;;;;;;;1.90;1.80;;;12.70;99.90;;;;;;4989664;28;20499;-51
2022/12/31 10:26:11;;;;;;;1.60;1.50;;;12.70;99.90;;;;;;5021804;28;20547;-52
2022/12/31 10:28:49;;;;;;;3.10;1.60;;;12.80;99.90;;;;;;5017700;28;20558;-51
2022/12/31 10:31:21;;;;;;;1.30;1.20;;;12.70;99.90;;;;;;5021807;28;20548;-51
2022/12/31 10:34:00;;;;;;;1.30;1.20;;;12.70;99.90;;;;;;5023552;28;20482;-51
2022/12/31 10:36:31;;;;;;;0.80;0.70;;;12.70;99.90;;;;;;5023815;28;20606;-52
2022/12/31 10:39:13;;;;;;;0.70;0.70;;;12.80;99.90;;;;;;5022664;28;20488;-51
2022/12/31 10:42:04;;;;;;;0.90;0.90;;;12.80;99.90;;;;;;5022483;28;20545;-51
2022/12/31 10:44:57;;;;;;;0.90;0.87;;;12.70;99.90;;;;;;5022757;28;20558;-50
2022/12/31 10:48:00;;;;;;;1.00;0.90;;;12.80;99.90;;;;;;5022468;28;20558;-51
2022/12/31 10:50:48;;;;;;;1.23;0.73;;;12.80;99.90;;;;;;5020118;28;20490;-52
2022/12/31 10:54:00;;;;;;;0.77;0.77;;;12.80;99.90;;;;;;5022034;28;20502;-52
2022/12/31 10:57:05;;;;;;;1.10;1.00;;;12.80;99.90;;;;;;5019282;28;21233;-53
2022/12/31 11:00:08;;;;;;;1.07;1.00;;;12.80;99.90;;;;;;5022241;28;20507;-51
2022/12/31 11:03:25;;;;;;;1.07;0.80;;;12.80;99.90;;;;;;5019328;28;20454;-52
2022/12/31 11:06:25;;;;;;;1.10;1.10;;;12.80;99.90;;;;;;5021109;28;20506;-51
2022/12/31 11:09:24;;;;;;;1.27;1.27;;;12.80;99.90;;;;;;5022876;28;21066;-51
2022/12/31 11:12:02;;;;;;;1.13;1.10;;;12.80;99.90;;;;;;5021801;28;20551;-52
2022/12/31 11:14:47;;;;;;;0.70;0.70;;;12.80;99.90;;;;;;5024039;28;20519;-52
2022/12/31 11:17:25;;;;;;;0.70;0.70;;;12.80;99.90;;;;;;5022898;28;20519;-52
2022/12/31 11:20:02;;;;;;;0.83;0.83;;;12.80;99.90;;;;;;5022423;28;20568;-52
2022/12/31 11:22:50;;;;;;;0.97;0.97;;;12.80;99.90;;;;;;5028411;28;20466;-52
2022/12/31 11:25:28;;;;;;;1.70;1.00;;;12.80;99.90;;;;;;5027202;28;20490;-52
2022/12/31 11:28:20;;;;;;;1.40;1.30;;;12.80;99.90;;;;;;5029266;28;20479;-53
2022/12/31 11:31:08;;;;;;;1.70;1.60;;;12.90;99.90;;;;;;5046476;23;20590;-57
2022/12/31 11:33:50;;;;;;;3.33;1.30;;;12.90;99.90;;;;;;5025975;28;20628;-56
2022/12/31 11:36:24;;;;;;;1.70;1.60;;;13.00;99.90;;;;;;5029110;28;20491;-56
2022/12/31 11:38:53;;;;;;;1.27;1.27;;;13.20;99.90;;;;;;5025742;28;20520;-58
2022/12/31 11:41:25;;;;;;;4.10;1.10;;;13.30;99.90;;;;;;5031134;28;20521;-58
2022/12/31 11:44:00;;;;;;;1.13;1.03;;;13.40;99.90;;;;;;5027759;28;20551;-57
2022/12/31 11:46:43;;;;;;;1.47;1.37;;;13.40;99.90;;;;;;5026081;28;20966;-57
2022/12/31 11:49:35;;;;;;;1.30;1.30;;;13.50;99.90;;;;;;5023395;28;20551;-58
2022/12/31 11:52:39;;;;;;;1.77;1.50;;;13.40;99.90;;;;;;5019162;28;20542;-54
2022/12/31 11:55:22;;;;;;;1.80;1.70;;;13.40;99.90;;;;;;5023361;28;20543;-54
2022/12/31 11:57:51;;;;;;;2.43;2.27;;;13.40;99.90;;;;;;5016676;28;20572;-53
2022/12/31 12:00:21;;;;;;;1.63;1.50;;;13.40;99.90;;;;;;5025369;28;20563;-54
2022/12/31 12:02:50;;;;;;;9.80;1.73;;;13.40;99.90;;;;;;5027984;28;20960;-54
2022/12/31 12:05:19;;;;;;;1.20;1.10;;;13.50;99.90;;;;;;5028422;28;20460;-53
2022/12/31 12:07:46;;;;;;;1.10;1.10;;;13.50;99.90;;;;;;5030305;28;20486;-54
2022/12/31 12:10:23;;;;;;;3.33;1.70;;;13.50;99.90;;;;;;5028448;28;20518;-53
2022/12/31 12:12:50;;;;;;;2.07;1.40;;;13.50;99.90;;;;;;5026948;28;20499;-53
2022/12/31 12:15:23;;;;;;;1.67;1.40;;;13.50;99.90;;;;;;5027530;28;21029;-53
2022/12/31 12:17:53;;;;;;;1.57;1.47;;;13.50;99.90;;;;;;5031501;28;20563;-54
2022/12/31 12:20:27;;;;;;;4.10;1.27;;;13.50;99.90;;;;;;5029949;28;20523;-54
2022/12/31 12:22:56;;;;;;;1.70;1.60;;;13.50;99.90;;;;;;5017794;28;20549;-52
2022/12/31 12:25:25;;;;;;;1.63;1.53;;;13.50;99.90;;;;;;5029329;28;20860;-54
2022/12/31 12:27:52;;;;;;;1.37;1.27;;;13.50;99.90;;;;;;5026429;28;20470;-53
2022/12/31 12:30:23;;;;;;;1.50;1.40;;;13.50;99.90;;;;;;5025785;28;20506;-53
2022/12/31 12:32:55;;;;;;;2.60;1.60;;;13.50;99.90;;;;;;5028428;28;20487;-53
2022/12/31 12:35:28;;;;;;;1.60;1.47;;;13.60;99.90;;;;;;5031199;28;20439;-54
2022/12/31 12:38:03;;;;;;;1.97;1.70;;;13.60;99.90;;;;;;5030842;28;20574;-53
2022/12/31 12:40:30;;;;;;;1.67;1.57;;;13.70;99.90;;;;;;5028245;28;20898;-54
2022/12/31 12:42:57;;;;;;;1.80;1.70;;;13.80;99.90;;;;;;5025120;28;20518;-53
2022/12/31 12:45:26;;;;;;;1.37;1.27;;;13.80;99.90;;;;;;5028868;28;20491;-54
2022/12/31 12:47:57;;;;;;;2.10;1.63;;;13.80;99.90;;;;;;5022448;28;20559;-53
2022/12/31 12:50:32;;;;;;;1.57;1.43;;;13.90;99.90;;;;;;5028688;28;20933;-53
2022/12/31 12:53:30;;;;;;;2.63;1.77;;;14.30;99.90;;;;;;5024619;28;21031;-54
2022/12/31 12:56:07;;;;;;;3.23;1.20;;;14.40;99.90;;;;;;5026083;28;20981;-53
2022/12/31 12:58:45;;;;;;;2.17;1.60;;;14.50;99.90;;;;;;5029145;28;20610;-53
2022/12/31 13:01:23;;;;;;;3.50;1.90;;;14.70;27.50;;;;;;5028692;28;20515;-52
2022/12/31 13:04:08;;;;;;;1.40;1.30;;;14.90;40.50;;;;;;5023559;28;20499;-54
2022/12/31 13:06:42;;;;;;;1.67;1.27;;;15.10;53.70;;;;;;5023946;28;20546;-53
2022/12/31 13:09:23;;;;;;;1.53;1.30;;;15.20;59.80;;;;;;5032813;28;20485;-54
2022/12/31 13:12:02;;;;;;;2.07;1.40;;;15.30;71.10;;;;;;5031804;28;20546;-54
2022/12/31 13:14:35;;;;;;;4.23;2.03;;;15.40;70.20;;;;;;5025518;28;21055;-53
2022/12/31 13:17:16;;;;;;;2.43;1.40;;;15.40;80.00;;;;;;5025623;28;20548;-53
2022/12/31 13:19:50;;;;;;;2.00;1.33;;;15.50;83.90;;;;;;5019530;28;20498;-54
2022/12/31 13:22:25;;;;;;;1.30;1.20;;;15.60;81.80;;;;;;5028090;28;20475;-53
2022/12/31 13:24:58;;;;;;;5.83;1.50;;;15.70;99.90;;;;;;5030511;28;20541;-53
2022/12/31 13:27:28;;;;;;;2.80;1.90;;;15.80;99.90;;;;;;5030971;28;20591;-54
2022/12/31 13:29:59;;;;;;;3.70;1.90;;;15.90;99.90;;;;;;5023264;28;20579;-53
2022/12/31 13:32:38;;;;;;;1.43;1.13;;;15.90;99.90;;;;;;5033157;28;20495;-53